Time;durP1;ratioP1;P1;durP2;ratioP2;P2;SDS_P1;SDS_P2;PMS_P1;PMS_P2;Temp;Humidity;BMP_temperature;BMP_pressure;BME280_temperature;BME280_humidity;BME280_pressure;Samples;Min_cycle;Max_cycle;Signal;HPM_P1;HPM_P2
2022/10/19 00:01:10;;;;;;;0.00;0.00;;;8.50;99.90;;;;;;5047192;28;20053;-80
2022/10/19 00:03:36;;;;;;;0.00;0.00;;;8.60;99.90;;;;;;5048229;28;20045;-80
2022/10/19 00:06:24;;;;;;;0.00;0.00;;;8.60;99.90;;;;;;5047893;28;20044;-80
2022/10/19 00:08:51;;;;;;;0.00;0.00;;;8.70;99.90;;;;;;5048181;28;20052;-80
2022/10/19 00:11:18;;;;;;;0.00;0.00;;;8.70;99.90;;;;;;5047883;28;20105;-80
2022/10/19 00:13:43;;;;;;;0.00;0.00;;;8.70;99.90;;;;;;5047294;28;20495;-80
2022/10/19 00:16:15;;;;;;;0.00;0.00;;;8.80;99.90;;;;;;5029460;28;20055;-80
2022/10/19 00:18:44;;;;;;;0.00;0.00;;;8.90;99.90;;;;;;5047166;28;20548;-80
2022/10/19 00:21:13;;;;;;;0.00;0.00;;;9.00;99.90;;;;;;5047661;28;20066;-77
2022/10/19 00:23:39;;;;;;;0.00;0.00;;;9.00;99.90;;;;;;5046560;28;20052;-78
2022/10/19 00:26:05;;;;;;;0.30;0.17;;;9.10;99.90;;;;;;5046479;28;20079;-77
2022/10/19 00:28:30;;;;;;;0.00;0.00;;;9.10;99.90;;;;;;5045952;28;20041;-77
2022/10/19 00:31:01;;;;;;;0.00;0.00;;;9.10;99.90;;;;;;5046044;28;20041;-78
2022/10/19 00:33:26;;;;;;;0.00;0.00;;;9.20;99.90;;;;;;5046648;28;20055;-78
2022/10/19 00:35:52;;;;;;;0.00;0.00;;;9.20;99.90;;;;;;5046553;28;20033;-77
2022/10/19 00:38:20;;;;;;;0.00;0.00;;;9.20;99.90;;;;;;5045996;28;20415;-77
2022/10/19 00:40:46;;;;;;;0.00;0.00;;;9.30;99.90;;;;;;5046368;28;20063;-77
2022/10/19 00:43:18;;;;;;;0.00;0.00;;;9.30;99.90;;;;;;5046690;28;20526;-77
2022/10/19 00:45:43;;;;;;;0.00;0.00;;;9.30;99.90;;;;;;5046267;28;20045;-78
2022/10/19 00:48:13;;;;;;;0.00;0.00;;;9.30;99.90;;;;;;5046002;28;20560;-78
2022/10/19 00:50:39;;;;;;;0.00;0.00;;;9.30;99.90;;;;;;5045887;28;20057;-77
2022/10/19 00:53:05;;;;;;;0.00;0.00;;;9.30;99.90;;;;;;5045404;28;20049;-77
2022/10/19 00:55:32;;;;;;;0.10;0.08;;;9.30;99.90;;;;;;5045811;28;20052;-77
2022/10/19 00:57:57;;;;;;;0.00;0.00;;;9.30;99.90;;;;;;5046255;28;20539;-77
2022/10/19 01:00:23;;;;;;;0.00;0.00;;;9.40;99.90;;;;;;5045250;28;20162;-77
2022/10/19 01:02:49;;;;;;;0.05;0.05;;;9.40;99.90;;;;;;5046127;28;20084;-77
2022/10/19 01:05:16;;;;;;;0.00;0.00;;;9.40;99.90;;;;;;5046882;28;20407;-77
2022/10/19 01:07:41;;;;;;;0.00;0.00;;;9.50;99.90;;;;;;5046210;28;20149;-77
2022/10/19 01:10:08;;;;;;;0.00;0.00;;;9.50;99.90;;;;;;5045904;28;20072;-77
2022/10/19 01:12:55;;;;;;;0.20;0.13;;;9.50;99.90;;;;;;5027880;28;20060;-77
2022/10/19 01:15:41;;;;;;;0.10;0.10;;;9.60;99.90;;;;;;5046160;28;20047;-79
2022/10/19 01:18:36;;;;;;;0.00;0.00;;;9.60;99.90;;;;;;5035208;28;20060;-77
2022/10/19 01:21:23;;;;;;;0.10;0.10;;;9.60;99.90;;;;;;5037217;28;20064;-77
2022/10/19 01:24:19;;;;;;;0.10;0.10;;;9.70;99.90;;;;;;5047354;28;20132;-78
2022/10/19 01:27:20;;;;;;;0.05;0.03;;;9.70;99.90;;;;;;5046551;28;20836;-77
2022/10/19 01:30:06;;;;;;;0.95;0.85;;;9.70;99.90;;;;;;5036943;28;20114;-77
2022/10/19 01:32:50;;;;;;;0.00;0.00;;;9.70;99.90;;;;;;5045654;28;20098;-78
2022/10/19 01:35:33;;;;;;;0.00;0.00;;;9.80;99.90;;;;;;5045190;28;20033;-77
2022/10/19 01:38:24;;;;;;;0.00;0.00;;;9.80;99.90;;;;;;5045650;28;20053;-78
2022/10/19 01:41:07;;;;;;;1.38;0.35;;;9.80;99.90;;;;;;5045659;28;20633;-80
2022/10/19 01:44:06;;;;;;;0.45;0.10;;;9.80;99.90;;;;;;5046933;28;20097;-80
2022/10/19 01:46:45;;;;;;;0.00;0.00;;;9.80;99.90;;;;;;5047723;28;20057;-80
2022/10/19 01:49:20;;;;;;;0.00;0.00;;;9.80;99.90;;;;;;5046454;28;20809;-80
2022/10/19 01:51:50;;;;;;;0.00;0.00;;;9.80;99.90;;;;;;5046628;28;20049;-80
2022/10/19 01:54:18;;;;;;;0.10;0.10;;;9.80;99.90;;;;;;5046561;28;20053;-80
2022/10/19 01:56:46;;;;;;;0.00;0.00;;;9.80;99.90;;;;;;5046120;28;20038;-77
2022/10/19 01:59:14;;;;;;;0.75;0.32;;;9.90;99.90;;;;;;5045229;28;20502;-77
2022/10/19 02:01:44;;;;;;;0.00;0.00;;;9.90;99.90;;;;;;5045053;28;20053;-77
2022/10/19 02:04:13;;;;;;;0.00;0.00;;;9.90;99.90;;;;;;5028535;28;20052;-77
2022/10/19 02:06:39;;;;;;;2.90;1.00;;;9.80;99.90;;;;;;5048209;28;20812;-77
2022/10/19 02:09:05;;;;;;;1.73;0.30;;;9.80;99.90;;;;;;5047985;28;20060;-77
2022/10/19 02:11:31;;;;;;;0.00;0.00;;;9.90;99.90;;;;;;5029524;28;20422;-76
2022/10/19 02:14:07;;;;;;;0.00;0.00;;;9.90;99.90;;;;;;5049219;28;20080;-78
2022/10/19 02:16:39;;;;;;;0.00;0.00;;;9.90;99.90;;;;;;5049336;28;20052;-78
2022/10/19 02:19:07;;;;;;;0.00;0.00;;;9.90;70.40;;;;;;5049348;28;20571;-77
2022/10/19 02:21:33;;;;;;;0.00;0.00;;;10.00;1.00;;;;;;5050089;28;20048;-78
2022/10/19 02:23:59;;;;;;;0.05;0.05;;;10.00;1.00;;;;;;5032168;28;20053;-78
2022/10/19 02:26:25;;;;;;;0.00;0.00;;;10.00;1.00;;;;;;5049385;28;20044;-78
2022/10/19 02:28:54;;;;;;;0.00;0.00;;;10.10;1.00;;;;;;5030754;28;20412;-80
2022/10/19 02:31:20;;;;;;;0.55;0.43;;;10.10;1.00;;;;;;5049020;28;20049;-77
2022/10/19 02:33:46;;;;;;;0.00;0.00;;;10.10;1.00;;;;;;5030686;28;20049;-78
2022/10/19 02:36:12;;;;;;;0.00;0.00;;;10.10;1.00;;;;;;5049296;28;20059;-77
2022/10/19 02:38:40;;;;;;;0.00;0.00;;;10.10;8.50;;;;;;5048634;28;20056;-78
2022/10/19 02:41:17;;;;;;;0.05;0.05;;;10.00;11.10;;;;;;5048785;28;20063;-78
2022/10/19 02:43:48;;;;;;;0.00;0.00;;;10.00;24.00;;;;;;5049284;28;20049;-78
2022/10/19 02:46:36;;;;;;;0.00;0.00;;;9.80;27.20;;;;;;5048894;28;20152;-77
2022/10/19 02:49:03;;;;;;;0.00;0.00;;;9.70;28.20;;;;;;5048562;28;20131;-77
2022/10/19 02:51:35;;;;;;;0.00;0.00;;;9.60;65.80;;;;;;5048500;28;20403;-78
2022/10/19 02:54:01;;;;;;;1.70;0.93;;;9.60;99.90;;;;;;5047120;28;20060;-77
2022/10/19 02:56:27;;;;;;;0.88;0.63;;;9.60;49.90;;;;;;5047847;28;20041;-78
2022/10/19 02:58:52;;;;;;;0.00;0.00;;;9.50;1.00;;;;;;5047756;28;20530;-78
2022/10/19 03:01:18;;;;;;;0.00;0.00;;;9.50;1.00;;;;;;5047086;28;20480;-77
2022/10/19 03:03:43;;;;;;;0.00;0.00;;;9.40;1.00;;;;;;5047669;28;20044;-78
2022/10/19 03:06:09;;;;;;;0.00;0.00;;;9.30;1.00;;;;;;5048073;28;20127;-78
2022/10/19 03:08:35;;;;;;;0.00;0.00;;;9.20;1.00;;;;;;5049294;28;20055;-78
2022/10/19 03:11:00;;;;;;;0.00;0.00;;;9.20;42.50;;;;;;5048556;28;20487;-78
2022/10/19 03:13:26;;;;;;;0.00;0.00;;;9.00;14.10;;;;;;5048220;28;20041;-77
2022/10/19 03:15:51;;;;;;;0.00;0.00;;;8.80;7.30;;;;;;5047524;28;20045;-78
2022/10/19 03:18:17;;;;;;;0.00;0.00;;;8.60;31.30;;;;;;5048319;28;20041;-78
2022/10/19 03:20:43;;;;;;;0.00;0.00;;;8.40;28.70;;;;;;5047840;28;20426;-77
2022/10/19 03:23:08;;;;;;;4.80;1.65;;;8.30;99.90;;;;;;5047841;28;20487;-78
2022/10/19 03:25:34;;;;;;;0.00;0.00;;;8.20;99.90;;;;;;5048755;28;20045;-77
2022/10/19 03:28:00;;;;;;;0.00;0.00;;;8.10;99.90;;;;;;5048600;28;20060;-77
2022/10/19 03:30:25;;;;;;;0.00;0.00;;;7.90;99.90;;;;;;5049227;28;20495;-77
2022/10/19 03:32:51;;;;;;;0.00;0.00;;;7.70;99.90;;;;;;5030500;28;20048;-77
2022/10/19 03:35:16;;;;;;;0.00;0.00;;;7.60;99.90;;;;;;5049585;28;20116;-77
2022/10/19 03:37:42;;;;;;;0.00;0.00;;;7.40;99.90;;;;;;5048336;28;20098;-77
2022/10/19 03:40:08;;;;;;;0.00;0.00;;;7.50;99.90;;;;;;5047409;28;20136;-77
2022/10/19 03:42:34;;;;;;;0.43;0.10;;;7.20;99.90;;;;;;5047664;28;20037;-77
2022/10/19 03:44:59;;;;;;;0.30;0.30;;;7.10;99.90;;;;;;5047627;28;20045;-78
2022/10/19 03:47:25;;;;;;;0.00;0.00;;;7.00;99.90;;;;;;5047433;28;20057;-77
2022/10/19 03:49:51;;;;;;;0.00;0.00;;;6.90;99.90;;;;;;5051273;28;20520;-78
2022/10/19 03:52:18;;;;;;;0.00;0.00;;;6.80;99.90;;;;;;5030124;28;20072;-78
2022/10/19 03:54:44;;;;;;;0.00;0.00;;;6.80;99.90;;;;;;5048280;28;20037;-78
2022/10/19 03:57:10;;;;;;;0.25;0.25;;;6.90;99.90;;;;;;5048010;28;20076;-78
2022/10/19 03:59:36;;;;;;;0.00;0.00;;;7.00;99.90;;;;;;5048067;28;20069;-78
2022/10/19 04:02:02;;;;;;;0.00;0.00;;;7.10;99.90;;;;;;5049341;28;20049;-77
2022/10/19 04:04:27;;;;;;;0.00;0.00;;;7.10;99.90;;;;;;5048526;28;20098;-78
2022/10/19 04:06:53;;;;;;;0.00;0.00;;;7.20;99.90;;;;;;5048259;28;20491;-78
2022/10/19 04:09:20;;;;;;;0.00;0.00;;;7.30;99.90;;;;;;5048183;28;20076;-78
2022/10/19 04:11:47;;;;;;;0.10;0.10;;;7.40;99.90;;;;;;5047979;28;20067;-77
2022/10/19 04:14:15;;;;;;;0.57;0.38;;;7.40;99.90;;;;;;5048201;28;20121;-78
2022/10/19 04:16:40;;;;;;;0.00;0.00;;;7.50;99.90;;;;;;5048276;28;20041;-77
2022/10/19 04:19:07;;;;;;;0.00;0.00;;;7.50;99.90;;;;;;5029572;28;20051;-78
2022/10/19 04:21:35;;;;;;;0.00;0.00;;;7.70;99.90;;;;;;5047886;28;20101;-77
2022/10/19 04:24:11;;;;;;;1.55;1.45;;;7.60;99.90;;;;;;5030599;28;20093;-78
2022/10/19 04:26:45;;;;;;;1.05;0.38;;;7.60;99.90;;;;;;5049028;28;20052;-77
2022/10/19 04:29:11;;;;;;;0.00;0.00;;;7.60;99.90;;;;;;5048557;28;20105;-77
2022/10/19 04:31:38;;;;;;;0.08;0.08;;;7.50;99.90;;;;;;5047784;28;20079;-77
2022/10/19 04:34:04;;;;;;;0.00;0.00;;;7.50;99.90;;;;;;5048123;28;20041;-78
2022/10/19 04:36:29;;;;;;;0.00;0.00;;;7.50;99.90;;;;;;5047952;28;20044;-78
2022/10/19 04:38:55;;;;;;;0.00;0.00;;;7.40;99.90;;;;;;5048366;28;20553;-77
2022/10/19 04:41:21;;;;;;;0.00;0.00;;;7.40;99.90;;;;;;5046085;28;20059;-77
2022/10/19 04:43:47;;;;;;;0.00;0.00;;;7.30;99.90;;;;;;5046245;28;20072;-78
2022/10/19 04:46:18;;;;;;;0.00;0.00;;;7.80;99.90;;;;;;5046905;28;20033;-78
2022/10/19 04:48:46;;;;;;;0.00;0.00;;;7.30;99.90;;;;;;5045365;28;20055;-78
2022/10/19 04:51:13;;;;;;;0.05;0.05;;;7.40;99.90;;;;;;5044533;28;20528;-77
2022/10/19 04:53:40;;;;;;;0.00;0.00;;;7.40;99.90;;;;;;5026182;28;20072;-78
2022/10/19 04:56:25;;;;;;;0.00;0.00;;;7.40;99.90;;;;;;5026316;28;20423;-77
2022/10/19 04:58:54;;;;;;;2.92;1.98;;;7.40;99.90;;;;;;5043843;28;20453;-78
2022/10/19 05:01:21;;;;;;;0.00;0.00;;;7.50;99.90;;;;;;5043302;28;20623;-78
2022/10/19 05:03:47;;;;;;;0.00;0.00;;;7.50;99.90;;;;;;5042218;28;20072;-77
2022/10/19 05:06:14;;;;;;;0.00;0.00;;;7.40;99.90;;;;;;5043105;28;20128;-77
2022/10/19 05:08:41;;;;;;;0.10;0.10;;;7.40;99.90;;;;;;5047231;28;20388;-78
2022/10/19 05:11:13;;;;;;;0.00;0.00;;;7.50;99.90;;;;;;5048809;28;20088;-77
2022/10/19 05:13:39;;;;;;;0.00;0.00;;;7.50;99.90;;;;;;5031258;28;20053;-78
2022/10/19 05:16:06;;;;;;;0.00;0.00;;;7.60;99.90;;;;;;5049634;28;20084;-78
2022/10/19 05:18:33;;;;;;;0.00;0.00;;;7.60;99.90;;;;;;5049126;28;20103;-78
2022/10/19 05:21:11;;;;;;;0.00;0.00;;;7.70;99.90;;;;;;5050698;28;20079;-77
2022/10/19 05:23:37;;;;;;;0.80;0.17;;;7.70;99.90;;;;;;5049951;28;20053;-77
2022/10/19 05:26:05;;;;;;;0.00;0.00;;;7.70;99.90;;;;;;5049754;28;20087;-78
2022/10/19 05:28:32;;;;;;;0.10;0.10;;;7.80;99.90;;;;;;5048303;28;20124;-77
2022/10/19 05:31:09;;;;;;;0.00;0.00;;;7.90;99.90;;;;;;5047990;28;20124;-77
2022/10/19 05:33:35;;;;;;;0.00;0.00;;;7.90;99.90;;;;;;5048810;28;20056;-78
2022/10/19 05:36:12;;;;;;;0.10;0.10;;;8.00;99.90;;;;;;5048422;28;20041;-77
2022/10/19 05:38:38;;;;;;;0.00;0.00;;;8.00;99.90;;;;;;5046811;28;20509;-78
2022/10/19 05:41:04;;;;;;;0.00;0.00;;;8.10;99.90;;;;;;5050491;28;20052;-78
2022/10/19 05:43:29;;;;;;;0.45;0.22;;;8.30;99.90;;;;;;5050763;28;20044;-78
2022/10/19 05:45:55;;;;;;;0.00;0.00;;;8.30;99.90;;;;;;5050406;28;20048;-78
2022/10/19 05:48:20;;;;;;;0.03;0.03;;;8.00;99.90;;;;;;5050178;28;20071;-78
2022/10/19 05:50:53;;;;;;;0.00;0.00;;;8.30;99.90;;;;;;5050431;28;20040;-78
2022/10/19 05:53:19;;;;;;;1.38;0.77;;;8.30;99.90;;;;;;5050175;28;20837;-78
2022/10/19 05:55:45;;;;;;;0.00;0.00;;;8.30;99.90;;;;;;5050439;28;20055;-78
2022/10/19 05:58:10;;;;;;;3.50;1.10;;;8.20;99.90;;;;;;5049833;28;20045;-78
2022/10/19 06:00:36;;;;;;;0.30;0.30;;;8.30;99.90;;;;;;5049497;28;20052;-78
2022/10/19 06:03:02;;;;;;;0.85;0.57;;;8.80;99.90;;;;;;5049589;28;20078;-78
2022/10/19 06:05:27;;;;;;;0.00;0.00;;;8.70;99.90;;;;;;5050205;28;20080;-78
2022/10/19 06:07:53;;;;;;;4.80;0.75;;;8.60;97.30;;;;;;5050524;28;20049;-78
2022/10/19 06:10:20;;;;;;;0.00;0.00;;;8.60;91.90;;;;;;5050332;28;20041;-78
2022/10/19 06:12:46;;;;;;;0.00;0.00;;;8.50;90.70;;;;;;5050146;28;20116;-78
2022/10/19 06:15:11;;;;;;;0.00;0.00;;;8.50;91.00;;;;;;5050555;28;20469;-78
2022/10/19 06:17:37;;;;;;;0.00;0.00;;;8.50;94.50;;;;;;5032126;28;20041;-78
2022/10/19 06:20:03;;;;;;;0.00;0.00;;;8.60;99.90;;;;;;5050546;28;20037;-78
2022/10/19 06:22:29;;;;;;;0.00;0.00;;;8.60;99.90;;;;;;5032012;28;20560;-78
2022/10/19 06:24:55;;;;;;;0.00;0.00;;;8.70;99.90;;;;;;5031824;28;20045;-78
2022/10/19 06:27:21;;;;;;;0.00;0.00;;;8.70;99.90;;;;;;5049992;28;20131;-78
2022/10/19 06:29:47;;;;;;;0.00;0.00;;;8.70;99.90;;;;;;5049829;28;20119;-78
2022/10/19 06:32:13;;;;;;;0.00;0.00;;;8.80;99.90;;;;;;5049453;28;20060;-78
2022/10/19 06:34:38;;;;;;;0.00;0.00;;;8.90;99.90;;;;;;5049655;28;20052;-78
2022/10/19 06:37:04;;;;;;;0.98;0.65;;;9.00;99.90;;;;;;5049549;28;20522;-78
2022/10/19 06:39:30;;;;;;;0.00;0.00;;;9.10;99.90;;;;;;5019587;28;20060;-78
2022/10/19 06:41:55;;;;;;;0.17;0.10;;;9.20;99.90;;;;;;5029938;28;20049;-78
2022/10/19 06:44:21;;;;;;;0.00;0.00;;;9.30;99.90;;;;;;5030026;28;20045;-78
2022/10/19 06:46:47;;;;;;;0.00;0.00;;;9.40;99.90;;;;;;5029537;28;20049;-78
2022/10/19 06:49:13;;;;;;;0.00;0.00;;;9.40;99.90;;;;;;5045894;28;20083;-78
2022/10/19 06:51:39;;;;;;;0.00;0.00;;;9.50;99.90;;;;;;5048267;28;20067;-78
2022/10/19 06:54:05;;;;;;;0.10;0.10;;;9.50;44.80;;;;;;5049448;28;20414;-78
2022/10/19 06:56:32;;;;;;;0.10;0.05;;;9.70;99.90;;;;;;5048882;28;20140;-78
2022/10/19 06:58:58;;;;;;;0.32;0.32;;;9.70;99.90;;;;;;5048769;28;20041;-78
2022/10/19 07:01:24;;;;;;;0.10;0.10;;;9.80;93.90;;;;;;5049139;28;20497;-78
2022/10/19 07:03:52;;;;;;;0.00;0.00;;;9.90;99.90;;;;;;5049776;28;20085;-77
2022/10/19 07:06:19;;;;;;;0.17;0.17;;;10.10;99.90;;;;;;5049942;28;20574;-78
2022/10/19 07:08:45;;;;;;;0.63;0.63;;;10.00;99.90;;;;;;5050001;28;20112;-77
2022/10/19 07:11:16;;;;;;;0.10;0.10;;;10.10;92.00;;;;;;5032062;28;20144;-78
2022/10/19 07:13:41;;;;;;;2.03;0.93;;;10.20;99.90;;;;;;5050535;28;20063;-77
2022/10/19 07:16:13;;;;;;;0.03;0.03;;;10.30;99.90;;;;;;5050007;28;20048;-78
2022/10/19 07:18:40;;;;;;;0.00;0.00;;;10.30;99.90;;;;;;5050396;28;20049;-78
2022/10/19 07:21:09;;;;;;;0.10;0.10;;;10.40;99.90;;;;;;5051163;28;20062;-77
2022/10/19 07:23:37;;;;;;;0.60;0.43;;;10.50;1.30;;;;;;5049521;28;20562;-78
2022/10/19 07:26:17;;;;;;;0.00;0.00;;;10.60;99.90;;;;;;5048587;28;20116;-78
2022/10/19 07:28:46;;;;;;;0.00;0.00;;;10.80;99.90;;;;;;5048830;28;20079;-78
2022/10/19 07:31:14;;;;;;;0.00;0.00;;;10.90;99.90;;;;;;5049105;28;20049;-78
2022/10/19 07:33:39;;;;;;;0.10;0.10;;;11.00;99.90;;;;;;5048177;28;20048;-78
2022/10/19 07:36:08;;;;;;;0.00;0.00;;;11.00;99.90;;;;;;5046859;28;20087;-78
2022/10/19 07:38:35;;;;;;;0.00;0.00;;;11.10;99.90;;;;;;5042064;28;20095;-78
2022/10/19 07:41:03;;;;;;;0.00;0.00;;;11.20;99.90;;;;;;5041854;28;20070;-80
2022/10/19 07:43:29;;;;;;;0.28;0.28;;;11.20;1.00;;;;;;5041735;28;20045;-78
2022/10/19 07:46:03;;;;;;;0.15;0.15;;;11.30;1.00;;;;;;5041890;28;20521;-78
2022/10/19 07:48:29;;;;;;;0.00;0.00;;;11.30;99.90;;;;;;5041776;28;20053;-78
2022/10/19 07:50:55;;;;;;;0.00;0.00;;;11.40;1.00;;;;;;5043268;28;20041;-78
2022/10/19 07:53:21;;;;;;;0.10;0.10;;;11.40;1.00;;;;;;5044132;28;20048;-78
2022/10/19 07:55:46;;;;;;;3.42;0.20;;;11.50;61.40;;;;;;5043663;28;20091;-78
2022/10/19 07:58:12;;;;;;;0.90;0.77;;;11.50;99.90;;;;;;5043262;28;20076;-78
2022/10/19 08:00:39;;;;;;;0.73;0.25;;;11.50;99.90;;;;;;5043804;28;20130;-78
2022/10/19 08:03:04;;;;;;;0.00;0.00;;;11.60;99.90;;;;;;5043885;28;20049;-77
2022/10/19 08:05:33;;;;;;;0.00;0.00;;;11.80;99.90;;;;;;5044007;28;20052;-78
2022/10/19 08:07:59;;;;;;;1.15;0.47;;;11.80;99.90;;;;;;5043794;28;20552;-77
2022/10/19 08:10:25;;;;;;;0.00;0.00;;;11.90;99.90;;;;;;5043768;28;20053;-78
2022/10/19 08:12:50;;;;;;;0.08;0.08;;;11.90;99.90;;;;;;5043756;28;20111;-78
2022/10/19 08:15:16;;;;;;;0.10;0.10;;;12.00;99.90;;;;;;5025830;28;20056;-78
2022/10/19 08:17:42;;;;;;;0.10;0.10;;;12.10;99.90;;;;;;5026305;28;20060;-78
2022/10/19 08:20:08;;;;;;;0.00;0.00;;;12.10;59.20;;;;;;5043222;28;20040;-78
2022/10/19 08:22:33;;;;;;;0.10;0.10;;;12.20;99.90;;;;;;5044149;28;20072;-78
2022/10/19 08:24:59;;;;;;;0.00;0.00;;;12.30;1.00;;;;;;5025709;28;20075;-78
2022/10/19 08:27:25;;;;;;;0.20;0.20;;;12.40;1.00;;;;;;5044338;28;20119;-78
2022/10/19 08:29:51;;;;;;;0.00;0.00;;;12.50;1.00;;;;;;5025642;28;20068;-79
2022/10/19 08:32:17;;;;;;;0.25;0.22;;;12.70;99.90;;;;;;5043875;28;20411;-78
2022/10/19 08:34:43;;;;;;;0.10;0.10;;;12.50;99.90;;;;;;5043566;28;20053;-80
2022/10/19 08:37:09;;;;;;;0.20;0.20;;;12.50;99.90;;;;;;5043082;28;20037;-78
2022/10/19 08:39:35;;;;;;;0.65;0.57;;;12.60;99.90;;;;;;5043099;28;20048;-77
2022/10/19 08:42:13;;;;;;;0.00;0.00;;;12.60;99.90;;;;;;5025702;28;20503;-78
2022/10/19 08:44:41;;;;;;;0.55;0.30;;;12.70;99.90;;;;;;5024831;28;20091;-78
2022/10/19 08:47:25;;;;;;;0.35;0.25;;;12.70;1.00;;;;;;5043228;28;20045;-78
2022/10/19 08:49:51;;;;;;;0.65;0.60;;;12.80;99.90;;;;;;5043544;28;20048;-77
2022/10/19 08:52:29;;;;;;;0.98;0.20;;;12.90;99.90;;;;;;5026294;28;20094;-78
2022/10/19 08:54:59;;;;;;;0.55;0.47;;;12.90;99.90;;;;;;5044095;28;20049;-78
2022/10/19 08:57:44;;;;;;;0.00;0.00;;;13.00;99.90;;;;;;5027580;28;20811;-78
2022/10/19 09:00:16;;;;;;;0.45;0.45;;;13.10;99.90;;;;;;5043797;28;20080;-78
2022/10/19 09:02:47;;;;;;;0.65;0.65;;;13.20;99.90;;;;;;5044609;28;20045;-78
2022/10/19 09:05:53;;;;;;;0.52;0.32;;;13.10;99.90;;;;;;5044302;28;20557;-78
2022/10/19 09:08:20;;;;;;;0.00;0.00;;;13.10;99.90;;;;;;5025835;28;20098;-79
2022/10/19 09:10:50;;;;;;;0.00;0.00;;;13.20;99.90;;;;;;5043495;28;20507;-78
2022/10/19 09:13:47;;;;;;;4.30;0.20;;;13.20;99.90;;;;;;5025037;28;20040;-79
2022/10/19 09:16:16;;;;;;;0.52;0.52;;;13.20;99.90;;;;;;5041988;28;20056;-79
2022/10/19 09:18:44;;;;;;;0.00;0.00;;;13.20;99.90;;;;;;5043189;28;20040;-78
2022/10/19 09:21:20;;;;;;;0.10;0.10;;;13.20;99.90;;;;;;5043916;28;20132;-78
2022/10/19 09:23:57;;;;;;;0.00;0.00;;;13.30;99.90;;;;;;5043957;28;20051;-79
2022/10/19 09:26:31;;;;;;;0.38;0.38;;;13.30;99.90;;;;;;5044328;28;20775;-79
2022/10/19 09:29:04;;;;;;;0.60;0.52;;;13.10;91.60;;;;;;5043615;28;20049;-78
2022/10/19 09:31:33;;;;;;;0.00;0.00;;;13.20;99.90;;;;;;5043427;28;20045;-79
2022/10/19 09:34:22;;;;;;;0.00;0.00;;;13.30;99.90;;;;;;5025299;28;20045;-79
2022/10/19 09:36:58;;;;;;;0.00;0.00;;;13.70;99.90;;;;;;5042974;28;20411;-79
2022/10/19 09:39:25;;;;;;;0.00;0.00;;;13.30;99.90;;;;;;5043954;28;20111;-79
2022/10/19 09:41:54;;;;;;;3.78;1.65;;;13.20;99.90;;;;;;5025251;28;20111;-80
2022/10/19 09:44:22;;;;;;;0.35;0.32;;;13.70;99.90;;;;;;5048029;28;20049;-79
2022/10/19 09:46:56;;;;;;;0.00;0.00;;;13.40;99.90;;;;;;5044339;28;20045;-78
2022/10/19 09:49:42;;;;;;;0.00;0.00;;;13.50;99.90;;;;;;5043152;28;20048;-79
2022/10/19 09:52:32;;;;;;;0.35;0.22;;;13.50;99.90;;;;;;5043376;28;20088;-79
2022/10/19 09:55:18;;;;;;;2.55;0.43;;;13.40;5.50;;;;;;5043187;28;20088;-79
2022/10/19 09:57:48;;;;;;;0.00;0.00;;;13.50;99.90;;;;;;5043836;28;20067;-78
2022/10/19 10:00:19;;;;;;;0.15;0.08;;;13.60;1.00;;;;;;5042550;28;20053;-79
2022/10/19 10:02:53;;;;;;;2.60;0.52;;;13.50;19.50;;;;;;5043066;28;20195;-78
2022/10/19 10:05:40;;;;;;;0.00;0.00;;;13.60;1.00;;;;;;5043773;28;20041;-79
2022/10/19 10:08:15;;;;;;;0.00;0.00;;;13.60;98.10;;;;;;5043764;28;20063;-78
2022/10/19 10:10:51;;;;;;;10.75;1.75;;;13.60;99.90;;;;;;5042874;28;20059;-79
2022/10/19 10:13:19;;;;;;;0.00;0.00;;;13.70;99.90;;;;;;5043050;28;20552;-78
2022/10/19 10:16:07;;;;;;;0.25;0.15;;;13.60;1.00;;;;;;5042770;28;20049;-78
2022/10/19 10:18:38;;;;;;;0.00;0.00;;;13.80;99.90;;;;;;5042711;28;20051;-79
2022/10/19 10:21:13;;;;;;;0.00;0.00;;;13.60;11.20;;;;;;5043395;28;20517;-78
2022/10/19 10:23:39;;;;;;;0.00;0.00;;;13.80;99.90;;;;;;5024414;28;20053;-79
2022/10/19 10:26:17;;;;;;;0.00;0.00;;;13.80;34.10;;;;;;5045644;28;20072;-79
2022/10/19 10:28:48;;;;;;;1.60;0.80;;;13.90;94.40;;;;;;5046580;28;20041;-78
2022/10/19 10:31:17;;;;;;;1.13;0.40;;;13.90;52.70;;;;;;5046866;28;20407;-77
2022/10/19 10:33:51;;;;;;;0.00;0.00;;;14.00;99.90;;;;;;5045543;28;20056;-78
2022/10/19 10:36:21;;;;;;;0.28;0.28;;;13.80;1.00;;;;;;5045178;28;20478;-77
2022/10/19 10:38:52;;;;;;;8.57;2.10;;;13.80;1.00;;;;;;5045413;28;20179;-78
2022/10/19 10:41:22;;;;;;;0.10;0.10;;;13.70;1.00;;;;;;5044855;28;20063;-79
2022/10/19 10:44:02;;;;;;;0.52;0.45;;;13.60;90.50;;;;;;5043943;28;20130;-78
2022/10/19 10:46:34;;;;;;;0.63;0.08;;;13.60;3.60;;;;;;5044390;28;20041;-78
2022/10/19 10:49:05;;;;;;;0.40;0.40;;;13.90;42.50;;;;;;5043705;28;20083;-78
2022/10/19 10:51:39;;;;;;;0.17;0.10;;;14.10;3.20;;;;;;5044435;28;20387;-78
2022/10/19 10:54:21;;;;;;;0.17;0.17;;;14.20;1.00;;;;;;5044347;28;20056;-77
2022/10/19 10:57:15;;;;;;;0.00;0.00;;;14.10;1.00;;;;;;5026049;28;20557;-77
2022/10/19 11:00:29;;;;;;;0.35;0.35;;;13.80;99.90;;;;;;5025983;28;20052;-78
2022/10/19 11:03:11;;;;;;;0.00;0.00;;;13.70;1.00;;;;;;5026354;28;20052;-78
2022/10/19 11:05:44;;;;;;;0.08;0.08;;;14.00;1.00;;;;;;5042779;28;20626;-79
2022/10/19 11:08:17;;;;;;;0.55;0.40;;;14.10;1.00;;;;;;5043805;28;20412;-78
2022/10/19 11:10:50;;;;;;;0.43;0.30;;;14.00;1.00;;;;;;5043902;28;20086;-78
2022/10/19 11:13:36;;;;;;;0.00;0.00;;;14.00;1.00;;;;;;5044274;28;20582;-79
2022/10/19 11:16:14;;;;;;;0.10;0.10;;;13.90;1.00;;;;;;5043751;28;20504;-78
2022/10/19 11:18:47;;;;;;;0.00;0.00;;;13.90;99.90;;;;;;5043383;28;20045;-79
2022/10/19 11:21:20;;;;;;;0.30;0.30;;;14.20;1.00;;;;;;5026237;28;20044;-79
2022/10/19 11:24:15;;;;;;;3.30;0.47;;;14.40;99.90;;;;;;5025644;28;20526;-78
2022/10/19 11:27:11;;;;;;;0.20;0.17;;;14.40;99.90;;;;;;5044375;28;20059;-78
2022/10/19 11:29:59;;;;;;;0.00;0.00;;;14.20;99.90;;;;;;5043876;28;20064;-78
2022/10/19 11:32:28;;;;;;;0.00;0.00;;;14.10;99.90;;;;;;5045167;28;20056;-78
2022/10/19 11:35:35;;;;;;;0.00;0.00;;;14.10;99.90;;;;;;5046866;28;20055;-77
2022/10/19 11:38:07;;;;;;;0.00;0.00;;;14.20;99.90;;;;;;5045545;28;20116;-78
2022/10/19 11:40:35;;;;;;;0.17;0.17;;;13.90;99.90;;;;;;5047758;28;20494;-78
2022/10/19 11:43:27;;;;;;;0.10;0.00;;;14.20;99.90;;;;;;5047833;28;20080;-78
2022/10/19 11:46:03;;;;;;;0.00;0.00;;;14.90;99.90;;;;;;5047984;28;20095;-78
2022/10/19 11:48:32;;;;;;;;;;;15.30;99.90;;;;;;5050020;28;20079;-79
2022/10/19 11:51:23;;;;;;;0.00;0.00;;;15.30;99.90;;;;;;5048451;28;19925;-78
2022/10/19 11:54:20;;;;;;;0.00;0.00;;;15.20;99.90;;;;;;5047020;28;20057;-78
2022/10/19 11:57:12;;;;;;;0.40;0.30;;;15.40;99.90;;;;;;5029919;28;20610;-78
2022/10/19 12:00:02;;;;;;;1.67;0.55;;;15.00;99.90;;;;;;5049725;28;20490;-78
2022/10/19 12:02:48;;;;;;;0.05;0.05;;;15.10;99.90;;;;;;5050110;28;20044;-78
2022/10/19 12:05:32;;;;;;;0.00;0.00;;;15.20;99.90;;;;;;5051932;28;20041;-78
2022/10/19 12:08:38;;;;;;;3.42;0.75;;;15.30;99.90;;;;;;5048584;28;20037;-78
2022/10/19 12:11:22;;;;;;;0.13;0.13;;;14.90;99.90;;;;;;5050370;28;20451;-78
2022/10/19 12:13:59;;;;;;;0.00;0.00;;;14.60;99.90;;;;;;5051298;28;20048;-78
2022/10/19 12:16:38;;;;;;;0.00;0.00;;;14.30;99.90;;;;;;5050988;28;20510;-78
2022/10/19 12:19:05;;;;;;;3.08;0.60;;;14.40;99.90;;;;;;5053721;28;20048;-78
2022/10/19 12:21:39;;;;;;;0.93;0.52;;;15.30;99.90;;;;;;5052068;28;20060;-78
2022/10/19 12:24:27;;;;;;;0.28;0.10;;;14.80;99.90;;;;;;5031787;28;20057;-78
2022/10/19 12:26:54;;;;;;;0.50;0.43;;;15.40;99.90;;;;;;5031990;28;20462;-78
2022/10/19 12:29:27;;;;;;;0.55;0.40;;;14.20;99.90;;;;;;5049812;28;20434;-78
2022/10/19 12:31:55;;;;;;;0.00;0.00;;;13.90;99.90;;;;;;5050061;28;20086;-78
2022/10/19 12:34:40;;;;;;;2.45;1.20;;;14.10;99.90;;;;;;5049744;28;20064;-78
2022/10/19 12:37:06;;;;;;;0.00;0.00;;;14.30;1.00;;;;;;5051029;28;20357;-78
2022/10/19 12:40:00;;;;;;;0.08;0.08;;;14.50;99.90;;;;;;5049254;28;20057;-79
2022/10/19 12:42:32;;;;;;;0.00;0.00;;;14.30;99.90;;;;;;5041069;28;20604;-78
2022/10/19 12:45:24;;;;;;;0.03;0.03;;;14.00;99.90;;;;;;5050231;28;20068;-78
2022/10/19 12:48:09;;;;;;;0.35;0.35;;;13.90;99.90;;;;;;5050384;28;20462;-78
2022/10/19 12:50:47;;;;;;;0.15;0.15;;;14.30;99.90;;;;;;5049477;28;20476;-78
2022/10/19 12:53:29;;;;;;;0.20;0.20;;;14.20;99.90;;;;;;5032284;28;20131;-78
2022/10/19 12:56:32;;;;;;;0.15;0.15;;;14.50;99.90;;;;;;5047236;28;20084;-77
2022/10/19 12:59:01;;;;;;;0.00;0.00;;;14.50;99.90;;;;;;5038442;28;20049;-78
2022/10/19 13:01:47;;;;;;;0.10;0.10;;;14.70;99.90;;;;;;5048697;28;20053;-78
2022/10/19 13:04:18;;;;;;;0.20;0.20;;;14.20;99.90;;;;;;5049871;28;20049;-78
2022/10/19 13:06:49;;;;;;;0.00;0.00;;;14.30;99.90;;;;;;5051216;28;20066;-78
2022/10/19 13:09:33;;;;;;;0.00;0.00;;;14.40;99.90;;;;;;5049636;28;20124;-78
2022/10/19 13:12:14;;;;;;;0.05;0.05;;;14.10;99.90;;;;;;5048470;28;20047;-76
2022/10/19 13:15:00;;;;;;;0.10;0.10;;;13.80;99.90;;;;;;5051484;28;20052;-78
2022/10/19 13:17:39;;;;;;;0.00;0.00;;;13.80;99.90;;;;;;5049403;28;20045;-78